sensor_id;sensor_type;location;lat;lon;timestamp;P1;durP1;ratioP1;P2;durP2;ratioP2
13483;SDS011;6814;57.786;12.080;2022-11-15T00:01:52;6.03;;;5.43;;
13483;SDS011;6814;57.786;12.080;2022-11-15T00:04:18;7.23;;;6.53;;
13483;SDS011;6814;57.786;12.080;2022-11-15T00:06:44;8.37;;;6.27;;
13483;SDS011;6814;57.786;12.080;2022-11-15T00:09:11;8.77;;;6.40;;
13483;SDS011;6814;57.786;12.080;2022-11-15T00:11:39;7.10;;;6.40;;
13483;SDS011;6814;57.786;12.080;2022-11-15T00:14:05;6.30;;;5.70;;
13483;SDS011;6814;57.786;12.080;2022-11-15T00:16:31;7.90;;;6.03;;
13483;SDS011;6814;57.786;12.080;2022-11-15T00:18:58;6.40;;;5.80;;
13483;SDS011;6814;57.786;12.080;2022-11-15T00:21:24;7.13;;;6.07;;
13483;SDS011;6814;57.786;12.080;2022-11-15T00:23:51;8.30;;;6.00;;
13483;SDS011;6814;57.786;12.080;2022-11-15T00:26:17;6.67;;;6.00;;
13483;SDS011;6814;57.786;12.080;2022-11-15T00:28:45;7.83;;;5.93;;
13483;SDS011;6814;57.786;12.080;2022-11-15T00:31:12;7.13;;;6.10;;
13483;SDS011;6814;57.786;12.080;2022-11-15T00:33:39;6.43;;;5.80;;
13483;SDS011;6814;57.786;12.080;2022-11-15T00:36:06;7.13;;;6.10;;
13483;SDS011;6814;57.786;12.080;2022-11-15T00:38:34;7.17;;;6.40;;
13483;SDS011;6814;57.786;12.080;2022-11-15T00:41:01;6.97;;;6.20;;
13483;SDS011;6814;57.786;12.080;2022-11-15T00:43:28;6.33;;;5.70;;
13483;SDS011;6814;57.786;12.080;2022-11-15T00:45:56;7.13;;;6.37;;
13483;SDS011;6814;57.786;12.080;2022-11-15T00:48:22;7.33;;;5.83;;
13483;SDS011;6814;57.786;12.080;2022-11-15T00:50:49;9.30;;;6.43;;
13483;SDS011;6814;57.786;12.080;2022-11-15T00:53:15;7.47;;;6.10;;
13483;SDS011;6814;57.786;12.080;2022-11-15T00:55:42;6.93;;;5.80;;
13483;SDS011;6814;57.786;12.080;2022-11-15T00:58:08;8.70;;;6.30;;
13483;SDS011;6814;57.786;12.080;2022-11-15T01:00:35;8.27;;;6.50;;
13483;SDS011;6814;57.786;12.080;2022-11-15T01:03:03;7.93;;;5.60;;
13483;SDS011;6814;57.786;12.080;2022-11-15T01:05:29;7.37;;;5.73;;
13483;SDS011;6814;57.786;12.080;2022-11-15T01:07:55;7.03;;;5.73;;
13483;SDS011;6814;57.786;12.080;2022-11-15T01:10:22;7.23;;;6.00;;
13483;SDS011;6814;57.786;12.080;2022-11-15T01:12:48;7.67;;;6.17;;
13483;SDS011;6814;57.786;12.080;2022-11-15T01:15:15;7.30;;;5.90;;
13483;SDS011;6814;57.786;12.080;2022-11-15T01:17:41;9.27;;;6.03;;
13483;SDS011;6814;57.786;12.080;2022-11-15T01:20:09;7.60;;;5.43;;
13483;SDS011;6814;57.786;12.080;2022-11-15T01:22:36;6.73;;;5.57;;
13483;SDS011;6814;57.786;12.080;2022-11-15T01:25:02;7.83;;;6.37;;
13483;SDS011;6814;57.786;12.080;2022-11-15T01:27:29;6.97;;;6.13;;
13483;SDS011;6814;57.786;12.080;2022-11-15T01:29:55;7.50;;;6.43;;
13483;SDS011;6814;57.786;12.080;2022-11-15T01:32:22;6.90;;;5.60;;
13483;SDS011;6814;57.786;12.080;2022-11-15T01:34:48;10.23;;;6.43;;
13483;SDS011;6814;57.786;12.080;2022-11-15T01:37:16;7.77;;;6.40;;
13483;SDS011;6814;57.786;12.080;2022-11-15T01:39:42;7.10;;;6.13;;
13483;SDS011;6814;57.786;12.080;2022-11-15T01:42:10;7.87;;;6.30;;
13483;SDS011;6814;57.786;12.080;2022-11-15T01:44:39;7.03;;;5.50;;
13483;SDS011;6814;57.786;12.080;2022-11-15T01:47:06;7.70;;;6.27;;
13483;SDS011;6814;57.786;12.080;2022-11-15T01:49:37;6.63;;;5.93;;
13483;SDS011;6814;57.786;12.080;2022-11-15T01:52:05;6.90;;;6.20;;
13483;SDS011;6814;57.786;12.080;2022-11-15T01:54:34;6.67;;;5.97;;
13483;SDS011;6814;57.786;12.080;2022-11-15T01:57:01;8.47;;;6.57;;
13483;SDS011;6814;57.786;12.080;2022-11-15T01:59:29;7.67;;;6.33;;
13483;SDS011;6814;57.786;12.080;2022-11-15T02:01:56;7.67;;;6.13;;
13483;SDS011;6814;57.786;12.080;2022-11-15T02:04:24;6.60;;;5.90;;
13483;SDS011;6814;57.786;12.080;2022-11-15T02:06:51;6.67;;;5.87;;
13483;SDS011;6814;57.786;12.080;2022-11-15T02:09:18;6.60;;;5.90;;
13483;SDS011;6814;57.786;12.080;2022-11-15T02:11:45;6.37;;;5.67;;
13483;SDS011;6814;57.786;12.080;2022-11-15T02:14:12;6.47;;;5.73;;
13483;SDS011;6814;57.786;12.080;2022-11-15T02:16:42;6.03;;;5.23;;
13483;SDS011;6814;57.786;12.080;2022-11-15T02:19:13;6.87;;;6.03;;
13483;SDS011;6814;57.786;12.080;2022-11-15T02:21:44;6.27;;;5.57;;
13483;SDS011;6814;57.786;12.080;2022-11-15T02:24:21;6.87;;;5.40;;
13483;SDS011;6814;57.786;12.080;2022-11-15T02:27:08;6.73;;;6.03;;
13483;SDS011;6814;57.786;12.080;2022-11-15T02:29:47;6.40;;;5.47;;
13483;SDS011;6814;57.786;12.080;2022-11-15T02:32:19;7.07;;;5.63;;
13483;SDS011;6814;57.786;12.080;2022-11-15T02:34:48;8.93;;;5.57;;
13483;SDS011;6814;57.786;12.080;2022-11-15T02:37:19;7.40;;;5.93;;
13483;SDS011;6814;57.786;12.080;2022-11-15T02:39:49;7.27;;;6.03;;
13483;SDS011;6814;57.786;12.080;2022-11-15T02:42:18;8.83;;;5.23;;
13483;SDS011;6814;57.786;12.080;2022-11-15T02:45:03;8.37;;;5.63;;
13483;SDS011;6814;57.786;12.080;2022-11-15T02:47:33;6.17;;;5.57;;
13483;SDS011;6814;57.786;12.080;2022-11-15T02:50:03;8.57;;;5.60;;
13483;SDS011;6814;57.786;12.080;2022-11-15T02:52:31;7.97;;;6.00;;
13483;SDS011;6814;57.786;12.080;2022-11-15T02:54:58;7.47;;;5.87;;
13483;SDS011;6814;57.786;12.080;2022-11-15T02:57:27;8.23;;;5.53;;
13483;SDS011;6814;57.786;12.080;2022-11-15T03:00:02;5.83;;;5.33;;
13483;SDS011;6814;57.786;12.080;2022-11-15T03:02:38;6.23;;;5.60;;
13483;SDS011;6814;57.786;12.080;2022-11-15T03:05:09;7.67;;;6.47;;
13483;SDS011;6814;57.786;12.080;2022-11-15T03:07:39;9.40;;;5.93;;
13483;SDS011;6814;57.786;12.080;2022-11-15T03:10:08;6.00;;;5.50;;
13483;SDS011;6814;57.786;12.080;2022-11-15T03:12:37;7.33;;;5.50;;
13483;SDS011;6814;57.786;12.080;2022-11-15T03:15:08;6.33;;;5.50;;
13483;SDS011;6814;57.786;12.080;2022-11-15T03:17:38;7.00;;;5.43;;
13483;SDS011;6814;57.786;12.080;2022-11-15T03:20:08;6.83;;;5.40;;
13483;SDS011;6814;57.786;12.080;2022-11-15T03:22:38;7.53;;;5.33;;
13483;SDS011;6814;57.786;12.080;2022-11-15T03:25:05;6.63;;;5.40;;
13483;SDS011;6814;57.786;12.080;2022-11-15T03:27:33;6.23;;;5.63;;
13483;SDS011;6814;57.786;12.080;2022-11-15T03:30:02;8.00;;;5.40;;
13483;SDS011;6814;57.786;12.080;2022-11-15T03:32:30;5.87;;;5.30;;
13483;SDS011;6814;57.786;12.080;2022-11-15T03:35:00;6.80;;;5.93;;
13483;SDS011;6814;57.786;12.080;2022-11-15T03:37:29;7.60;;;6.80;;
13483;SDS011;6814;57.786;12.080;2022-11-15T03:39:57;7.43;;;6.03;;
13483;SDS011;6814;57.786;12.080;2022-11-15T03:42:27;7.83;;;6.13;;
13483;SDS011;6814;57.786;12.080;2022-11-15T03:44:55;7.07;;;6.37;;
13483;SDS011;6814;57.786;12.080;2022-11-15T03:47:25;7.63;;;6.20;;
13483;SDS011;6814;57.786;12.080;2022-11-15T03:49:55;8.97;;;6.10;;
13483;SDS011;6814;57.786;12.080;2022-11-15T03:52:24;6.93;;;6.23;;
13483;SDS011;6814;57.786;12.080;2022-11-15T03:54:52;7.40;;;6.60;;
13483;SDS011;6814;57.786;12.080;2022-11-15T03:57:19;7.07;;;6.07;;
13483;SDS011;6814;57.786;12.080;2022-11-15T03:59:45;6.10;;;5.50;;
13483;SDS011;6814;57.786;12.080;2022-11-15T04:02:12;8.40;;;5.93;;
13483;SDS011;6814;57.786;12.080;2022-11-15T04:04:39;6.13;;;5.53;;
13483;SDS011;6814;57.786;12.080;2022-11-15T04:07:06;8.37;;;5.60;;
13483;SDS011;6814;57.786;12.080;2022-11-15T04:09:33;6.97;;;6.23;;
13483;SDS011;6814;57.786;12.080;2022-11-15T04:12:20;7.93;;;6.33;;
13483;SDS011;6814;57.786;12.080;2022-11-15T04:14:55;8.17;;;6.43;;
13483;SDS011;6814;57.786;12.080;2022-11-15T04:17:33;6.70;;;6.00;;
13483;SDS011;6814;57.786;12.080;2022-11-15T04:19:59;7.30;;;6.57;;
13483;SDS011;6814;57.786;12.080;2022-11-15T04:22:43;7.03;;;6.10;;
13483;SDS011;6814;57.786;12.080;2022-11-15T04:25:28;7.20;;;6.50;;
13483;SDS011;6814;57.786;12.080;2022-11-15T04:27:55;9.37;;;6.23;;
13483;SDS011;6814;57.786;12.080;2022-11-15T04:30:21;6.43;;;5.60;;
13483;SDS011;6814;57.786;12.080;2022-11-15T04:32:47;6.73;;;6.00;;
13483;SDS011;6814;57.786;12.080;2022-11-15T04:35:14;7.10;;;5.73;;
13483;SDS011;6814;57.786;12.080;2022-11-15T04:37:40;7.20;;;6.07;;
13483;SDS011;6814;57.786;12.080;2022-11-15T04:40:06;7.33;;;6.03;;
13483;SDS011;6814;57.786;12.080;2022-11-15T04:42:34;7.10;;;5.93;;
13483;SDS011;6814;57.786;12.080;2022-11-15T04:45:01;7.07;;;6.37;;
13483;SDS011;6814;57.786;12.080;2022-11-15T04:47:27;7.23;;;5.77;;
13483;SDS011;6814;57.786;12.080;2022-11-15T04:49:54;6.80;;;6.20;;
13483;SDS011;6814;57.786;12.080;2022-11-15T04:52:20;6.70;;;6.03;;
13483;SDS011;6814;57.786;12.080;2022-11-15T04:54:47;5.87;;;5.27;;
13483;SDS011;6814;57.786;12.080;2022-11-15T04:57:13;8.47;;;5.97;;
13483;SDS011;6814;57.786;12.080;2022-11-15T04:59:41;6.60;;;5.90;;
13483;SDS011;6814;57.786;12.080;2022-11-15T05:02:08;6.93;;;6.20;;
13483;SDS011;6814;57.786;12.080;2022-11-15T05:04:34;7.70;;;5.43;;
13483;SDS011;6814;57.786;12.080;2022-11-15T05:06:59;5.63;;;5.10;;
13483;SDS011;6814;57.786;12.080;2022-11-15T05:09:26;6.00;;;5.10;;
13483;SDS011;6814;57.786;12.080;2022-11-15T05:11:52;6.13;;;5.30;;
13483;SDS011;6814;57.786;12.080;2022-11-15T05:14:19;6.40;;;5.10;;
13483;SDS011;6814;57.786;12.080;2022-11-15T05:16:46;8.50;;;5.63;;
13483;SDS011;6814;57.786;12.080;2022-11-15T05:19:13;6.40;;;5.47;;
13483;SDS011;6814;57.786;12.080;2022-11-15T05:21:39;7.33;;;5.43;;
13483;SDS011;6814;57.786;12.080;2022-11-15T05:24:06;5.80;;;5.30;;
13483;SDS011;6814;57.786;12.080;2022-11-15T05:26:33;7.63;;;5.77;;
13483;SDS011;6814;57.786;12.080;2022-11-15T05:28:59;5.90;;;5.27;;
13483;SDS011;6814;57.786;12.080;2022-11-15T05:31:26;8.73;;;6.10;;
13483;SDS011;6814;57.786;12.080;2022-11-15T05:33:55;5.40;;;4.63;;
13483;SDS011;6814;57.786;12.080;2022-11-15T05:36:24;6.83;;;5.10;;
13483;SDS011;6814;57.786;12.080;2022-11-15T05:38:55;6.27;;;5.03;;
13483;SDS011;6814;57.786;12.080;2022-11-15T05:41:24;6.53;;;5.37;;
13483;SDS011;6814;57.786;12.080;2022-11-15T05:44:02;6.17;;;4.97;;
13483;SDS011;6814;57.786;12.080;2022-11-15T05:46:29;5.97;;;5.10;;
13483;SDS011;6814;57.786;12.080;2022-11-15T05:48:58;6.73;;;5.27;;
13483;SDS011;6814;57.786;12.080;2022-11-15T05:51:25;8.57;;;5.50;;
13483;SDS011;6814;57.786;12.080;2022-11-15T05:53:53;5.57;;;5.07;;
13483;SDS011;6814;57.786;12.080;2022-11-15T05:56:21;7.47;;;5.13;;
13483;SDS011;6814;57.786;12.080;2022-11-15T05:58:48;5.70;;;5.10;;
13483;SDS011;6814;57.786;12.080;2022-11-15T06:01:14;7.07;;;5.17;;
13483;SDS011;6814;57.786;12.080;2022-11-15T06:03:41;7.53;;;4.90;;
13483;SDS011;6814;57.786;12.080;2022-11-15T06:06:09;6.30;;;5.07;;
13483;SDS011;6814;57.786;12.080;2022-11-15T06:08:35;5.50;;;5.00;;
13483;SDS011;6814;57.786;12.080;2022-11-15T06:11:04;5.73;;;5.13;;
13483;SDS011;6814;57.786;12.080;2022-11-15T06:13:31;6.77;;;5.23;;
13483;SDS011;6814;57.786;12.080;2022-11-15T06:15:58;5.90;;;5.30;;
13483;SDS011;6814;57.786;12.080;2022-11-15T06:18:25;7.43;;;5.03;;
13483;SDS011;6814;57.786;12.080;2022-11-15T06:20:51;5.77;;;4.57;;
13483;SDS011;6814;57.786;12.080;2022-11-15T06:23:19;6.50;;;5.33;;
13483;SDS011;6814;57.786;12.080;2022-11-15T06:25:46;9.40;;;5.17;;
13483;SDS011;6814;57.786;12.080;2022-11-15T06:28:12;5.20;;;4.57;;
13483;SDS011;6814;57.786;12.080;2022-11-15T06:30:39;5.90;;;4.87;;
13483;SDS011;6814;57.786;12.080;2022-11-15T06:33:05;7.97;;;5.30;;
13483;SDS011;6814;57.786;12.080;2022-11-15T06:35:36;5.97;;;5.00;;
13483;SDS011;6814;57.786;12.080;2022-11-15T06:38:05;5.13;;;4.63;;
13483;SDS011;6814;57.786;12.080;2022-11-15T06:40:36;5.20;;;4.70;;
13483;SDS011;6814;57.786;12.080;2022-11-15T06:43:07;5.60;;;5.00;;
13483;SDS011;6814;57.786;12.080;2022-11-15T06:45:33;6.53;;;4.70;;
13483;SDS011;6814;57.786;12.080;2022-11-15T06:48:01;6.90;;;5.20;;
13483;SDS011;6814;57.786;12.080;2022-11-15T06:50:31;6.00;;;4.70;;
13483;SDS011;6814;57.786;12.080;2022-11-15T06:53:00;6.60;;;5.23;;
13483;SDS011;6814;57.786;12.080;2022-11-15T06:55:27;6.30;;;5.70;;
13483;SDS011;6814;57.786;12.080;2022-11-15T06:57:58;7.40;;;5.10;;
13483;SDS011;6814;57.786;12.080;2022-11-15T07:00:26;6.77;;;5.27;;
13483;SDS011;6814;57.786;12.080;2022-11-15T07:02:54;7.03;;;5.17;;
13483;SDS011;6814;57.786;12.080;2022-11-15T07:05:21;8.50;;;4.97;;
13483;SDS011;6814;57.786;12.080;2022-11-15T07:07:51;4.93;;;4.27;;
13483;SDS011;6814;57.786;12.080;2022-11-15T07:10:20;5.13;;;4.63;;
13483;SDS011;6814;57.786;12.080;2022-11-15T07:12:50;7.43;;;5.03;;
13483;SDS011;6814;57.786;12.080;2022-11-15T07:15:31;6.23;;;5.00;;
13483;SDS011;6814;57.786;12.080;2022-11-15T07:18:00;5.80;;;4.87;;
13483;SDS011;6814;57.786;12.080;2022-11-15T07:20:36;8.67;;;4.70;;
13483;SDS011;6814;57.786;12.080;2022-11-15T07:23:05;5.87;;;4.67;;
13483;SDS011;6814;57.786;12.080;2022-11-15T07:25:31;5.20;;;4.53;;
13483;SDS011;6814;57.786;12.080;2022-11-15T07:27:58;6.77;;;4.33;;
13483;SDS011;6814;57.786;12.080;2022-11-15T07:30:28;6.87;;;5.37;;
13483;SDS011;6814;57.786;12.080;2022-11-15T07:33:00;6.13;;;5.27;;
13483;SDS011;6814;57.786;12.080;2022-11-15T07:35:26;5.97;;;5.10;;
13483;SDS011;6814;57.786;12.080;2022-11-15T07:37:54;7.50;;;4.87;;
13483;SDS011;6814;57.786;12.080;2022-11-15T07:40:25;7.27;;;5.30;;
13483;SDS011;6814;57.786;12.080;2022-11-15T07:42:52;6.47;;;5.27;;
13483;SDS011;6814;57.786;12.080;2022-11-15T07:45:21;6.37;;;4.87;;
13483;SDS011;6814;57.786;12.080;2022-11-15T07:47:52;5.57;;;4.90;;
13483;SDS011;6814;57.786;12.080;2022-11-15T07:50:21;8.27;;;4.63;;
13483;SDS011;6814;57.786;12.080;2022-11-15T07:52:51;5.67;;;4.70;;
13483;SDS011;6814;57.786;12.080;2022-11-15T07:55:21;9.43;;;5.13;;
13483;SDS011;6814;57.786;12.080;2022-11-15T07:57:48;7.17;;;5.23;;
13483;SDS011;6814;57.786;12.080;2022-11-15T08:00:15;6.90;;;5.00;;
13483;SDS011;6814;57.786;12.080;2022-11-15T08:02:42;8.27;;;5.33;;
13483;SDS011;6814;57.786;12.080;2022-11-15T08:05:09;7.33;;;5.07;;
13483;SDS011;6814;57.786;12.080;2022-11-15T08:07:36;7.30;;;4.97;;
13483;SDS011;6814;57.786;12.080;2022-11-15T08:10:03;7.67;;;5.17;;
13483;SDS011;6814;57.786;12.080;2022-11-15T08:12:31;6.60;;;4.97;;
13483;SDS011;6814;57.786;12.080;2022-11-15T08:14:58;6.37;;;5.10;;
13483;SDS011;6814;57.786;12.080;2022-11-15T08:17:26;5.40;;;4.83;;
13483;SDS011;6814;57.786;12.080;2022-11-15T08:19:57;6.13;;;5.30;;
13483;SDS011;6814;57.786;12.080;2022-11-15T08:22:24;6.07;;;5.07;;
13483;SDS011;6814;57.786;12.080;2022-11-15T08:24:51;7.37;;;5.30;;
13483;SDS011;6814;57.786;12.080;2022-11-15T08:27:18;7.00;;;4.90;;
13483;SDS011;6814;57.786;12.080;2022-11-15T08:29:45;6.17;;;5.50;;
13483;SDS011;6814;57.786;12.080;2022-11-15T08:32:11;5.43;;;4.77;;
13483;SDS011;6814;57.786;12.080;2022-11-15T08:34:38;8.50;;;5.13;;
13483;SDS011;6814;57.786;12.080;2022-11-15T08:37:04;6.03;;;4.87;;
13483;SDS011;6814;57.786;12.080;2022-11-15T08:39:32;6.77;;;5.33;;
13483;SDS011;6814;57.786;12.080;2022-11-15T08:41:58;6.63;;;5.03;;
13483;SDS011;6814;57.786;12.080;2022-11-15T08:44:25;6.67;;;5.40;;
13483;SDS011;6814;57.786;12.080;2022-11-15T08:46:51;7.17;;;5.80;;
13483;SDS011;6814;57.786;12.080;2022-11-15T08:49:17;6.93;;;5.43;;
13483;SDS011;6814;57.786;12.080;2022-11-15T08:51:44;7.20;;;5.63;;
13483;SDS011;6814;57.786;12.080;2022-11-15T08:54:11;7.60;;;5.37;;
13483;SDS011;6814;57.786;12.080;2022-11-15T08:56:39;7.90;;;5.17;;
13483;SDS011;6814;57.786;12.080;2022-11-15T08:59:05;9.37;;;5.63;;
13483;SDS011;6814;57.786;12.080;2022-11-15T09:01:32;5.93;;;5.30;;
13483;SDS011;6814;57.786;12.080;2022-11-15T09:03:58;8.27;;;5.17;;
13483;SDS011;6814;57.786;12.080;2022-11-15T09:06:24;5.20;;;4.63;;
13483;SDS011;6814;57.786;12.080;2022-11-15T09:08:51;5.90;;;5.30;;
13483;SDS011;6814;57.786;12.080;2022-11-15T09:11:18;5.87;;;5.27;;
13483;SDS011;6814;57.786;12.080;2022-11-15T09:13:47;5.50;;;5.00;;
13483;SDS011;6814;57.786;12.080;2022-11-15T09:16:14;5.97;;;4.73;;
13483;SDS011;6814;57.786;12.080;2022-11-15T09:18:40;8.23;;;5.57;;
13483;SDS011;6814;57.786;12.080;2022-11-15T09:21:07;6.10;;;5.30;;
13483;SDS011;6814;57.786;12.080;2022-11-15T09:23:33;7.17;;;5.30;;
13483;SDS011;6814;57.786;12.080;2022-11-15T09:26:00;7.00;;;4.97;;
13483;SDS011;6814;57.786;12.080;2022-11-15T09:28:27;8.30;;;5.03;;
13483;SDS011;6814;57.786;12.080;2022-11-15T09:30:57;5.80;;;5.13;;
13483;SDS011;6814;57.786;12.080;2022-11-15T09:33:25;6.80;;;5.53;;
13483;SDS011;6814;57.786;12.080;2022-11-15T09:35:51;6.77;;;5.50;;
13483;SDS011;6814;57.786;12.080;2022-11-15T09:38:18;5.47;;;4.77;;
13483;SDS011;6814;57.786;12.080;2022-11-15T09:40:44;8.80;;;5.07;;
13483;SDS011;6814;57.786;12.080;2022-11-15T09:43:21;6.97;;;5.27;;
13483;SDS011;6814;57.786;12.080;2022-11-15T09:45:54;7.03;;;5.60;;
13483;SDS011;6814;57.786;12.080;2022-11-15T09:48:31;6.13;;;4.80;;
13483;SDS011;6814;57.786;12.080;2022-11-15T09:51:02;7.37;;;5.17;;
13483;SDS011;6814;57.786;12.080;2022-11-15T09:53:29;7.43;;;5.90;;
13483;SDS011;6814;57.786;12.080;2022-11-15T09:55:58;5.60;;;5.00;;
13483;SDS011;6814;57.786;12.080;2022-11-15T09:58:26;8.43;;;5.00;;
13483;SDS011;6814;57.786;12.080;2022-11-15T10:00:59;7.87;;;5.17;;
13483;SDS011;6814;57.786;12.080;2022-11-15T10:03:29;7.43;;;4.93;;
13483;SDS011;6814;57.786;12.080;2022-11-15T10:05:59;7.67;;;4.80;;
13483;SDS011;6814;57.786;12.080;2022-11-15T10:08:31;6.23;;;5.10;;
13483;SDS011;6814;57.786;12.080;2022-11-15T10:10:59;7.53;;;5.13;;
13483;SDS011;6814;57.786;12.080;2022-11-15T10:13:28;7.33;;;5.30;;
13483;SDS011;6814;57.786;12.080;2022-11-15T10:15:58;6.50;;;5.00;;
13483;SDS011;6814;57.786;12.080;2022-11-15T10:18:28;8.60;;;5.40;;
13483;SDS011;6814;57.786;12.080;2022-11-15T10:20:59;9.23;;;5.47;;
13483;SDS011;6814;57.786;12.080;2022-11-15T10:23:25;6.77;;;5.03;;
13483;SDS011;6814;57.786;12.080;2022-11-15T10:26:00;5.73;;;5.07;;
13483;SDS011;6814;57.786;12.080;2022-11-15T10:28:27;6.87;;;4.70;;
13483;SDS011;6814;57.786;12.080;2022-11-15T10:30:54;6.77;;;5.07;;
13483;SDS011;6814;57.786;12.080;2022-11-15T10:33:29;5.57;;;5.00;;
13483;SDS011;6814;57.786;12.080;2022-11-15T10:38:55;6.43;;;5.20;;
13483;SDS011;6814;57.786;12.080;2022-11-15T10:41:29;5.37;;;4.63;;
13483;SDS011;6814;57.786;12.080;2022-11-15T10:44:11;4.70;;;4.27;;
13483;SDS011;6814;57.786;12.080;2022-11-15T10:46:38;7.13;;;4.90;;
13483;SDS011;6814;57.786;12.080;2022-11-15T10:49:11;5.47;;;4.00;;
13483;SDS011;6814;57.786;12.080;2022-11-15T10:51:40;5.60;;;4.60;;
13483;SDS011;6814;57.786;12.080;2022-11-15T10:54:09;7.80;;;4.43;;
13483;SDS011;6814;57.786;12.080;2022-11-15T10:56:36;4.90;;;4.40;;
13483;SDS011;6814;57.786;12.080;2022-11-15T10:59:03;7.37;;;5.07;;
13483;SDS011;6814;57.786;12.080;2022-11-15T11:01:29;4.67;;;4.23;;
13483;SDS011;6814;57.786;12.080;2022-11-15T11:04:00;6.23;;;4.00;;
13483;SDS011;6814;57.786;12.080;2022-11-15T11:06:27;4.43;;;3.73;;
13483;SDS011;6814;57.786;12.080;2022-11-15T11:08:55;4.37;;;3.97;;
13483;SDS011;6814;57.786;12.080;2022-11-15T11:11:23;4.43;;;4.03;;
13483;SDS011;6814;57.786;12.080;2022-11-15T11:13:49;6.47;;;4.03;;
13483;SDS011;6814;57.786;12.080;2022-11-15T11:19:10;4.83;;;3.63;;
13483;SDS011;6814;57.786;12.080;2022-11-15T11:21:43;5.67;;;3.40;;
13483;SDS011;6814;57.786;12.080;2022-11-15T11:24:13;4.87;;;3.67;;
13483;SDS011;6814;57.786;12.080;2022-11-15T11:26:45;3.63;;;3.33;;
13483;SDS011;6814;57.786;12.080;2022-11-15T11:29:17;6.73;;;3.30;;
13483;SDS011;6814;57.786;12.080;2022-11-15T11:31:46;3.57;;;3.27;;
13483;SDS011;6814;57.786;12.080;2022-11-15T11:34:17;3.97;;;3.43;;
13483;SDS011;6814;57.786;12.080;2022-11-15T11:36:48;3.50;;;3.20;;
13483;SDS011;6814;57.786;12.080;2022-11-15T11:39:19;4.33;;;3.00;;
13483;SDS011;6814;57.786;12.080;2022-11-15T11:41:52;3.60;;;3.30;;
13483;SDS011;6814;57.786;12.080;2022-11-15T11:44:24;4.00;;;3.30;;
13483;SDS011;6814;57.786;12.080;2022-11-15T11:46:54;3.63;;;3.30;;
13483;SDS011;6814;57.786;12.080;2022-11-15T11:49:23;3.33;;;3.03;;
13483;SDS011;6814;57.786;12.080;2022-11-15T11:51:52;4.03;;;2.90;;
13483;SDS011;6814;57.786;12.080;2022-11-15T11:54:20;3.67;;;3.37;;
13483;SDS011;6814;57.786;12.080;2022-11-15T11:56:50;3.50;;;3.20;;
13483;SDS011;6814;57.786;12.080;2022-11-15T11:59:19;3.30;;;2.93;;
13483;SDS011;6814;57.786;12.080;2022-11-15T12:01:47;3.40;;;3.00;;
13483;SDS011;6814;57.786;12.080;2022-11-15T12:04:14;4.63;;;2.87;;
13483;SDS011;6814;57.786;12.080;2022-11-15T12:06:45;3.43;;;3.13;;
13483;SDS011;6814;57.786;12.080;2022-11-15T12:09:14;3.70;;;3.00;;
13483;SDS011;6814;57.786;12.080;2022-11-15T12:11:43;3.53;;;3.00;;
13483;SDS011;6814;57.786;12.080;2022-11-15T12:14:17;3.77;;;3.00;;
13483;SDS011;6814;57.786;12.080;2022-11-15T12:16:45;3.30;;;3.00;;
13483;SDS011;6814;57.786;12.080;2022-11-15T12:19:12;3.17;;;2.90;;
13483;SDS011;6814;57.786;12.080;2022-11-15T12:21:39;4.53;;;2.90;;
13483;SDS011;6814;57.786;12.080;2022-11-15T12:24:09;3.33;;;3.03;;
13483;SDS011;6814;57.786;12.080;2022-11-15T12:26:40;3.37;;;3.07;;
13483;SDS011;6814;57.786;12.080;2022-11-15T12:29:09;3.27;;;3.07;;
13483;SDS011;6814;57.786;12.080;2022-11-15T12:31:40;4.50;;;3.60;;
13483;SDS011;6814;57.786;12.080;2022-11-15T12:34:28;3.40;;;2.67;;
13483;SDS011;6814;57.786;12.080;2022-11-15T12:36:55;3.47;;;3.00;;
13483;SDS011;6814;57.786;12.080;2022-11-15T12:39:23;3.03;;;2.83;;
13483;SDS011;6814;57.786;12.080;2022-11-15T12:45:01;3.17;;;2.97;;
13483;SDS011;6814;57.786;12.080;2022-11-15T12:47:35;3.77;;;3.37;;
13483;SDS011;6814;57.786;12.080;2022-11-15T12:50:04;3.07;;;2.87;;
13483;SDS011;6814;57.786;12.080;2022-11-15T12:52:30;2.90;;;2.60;;
13483;SDS011;6814;57.786;12.080;2022-11-15T12:55:00;2.77;;;2.57;;
13483;SDS011;6814;57.786;12.080;2022-11-15T12:57:37;5.93;;;3.00;;
13483;SDS011;6814;57.786;12.080;2022-11-15T13:02:48;2.73;;;2.43;;
13483;SDS011;6814;57.786;12.080;2022-11-15T13:05:26;2.53;;;2.30;;
13483;SDS011;6814;57.786;12.080;2022-11-15T13:08:06;3.20;;;2.30;;
13483;SDS011;6814;57.786;12.080;2022-11-15T13:10:35;3.57;;;2.17;;
13483;SDS011;6814;57.786;12.080;2022-11-15T13:13:03;1.87;;;1.73;;
13483;SDS011;6814;57.786;12.080;2022-11-15T13:15:33;2.67;;;1.60;;
13483;SDS011;6814;57.786;12.080;2022-11-15T13:18:23;2.50;;;1.77;;
13483;SDS011;6814;57.786;12.080;2022-11-15T13:20:48;1.43;;;1.33;;
13483;SDS011;6814;57.786;12.080;2022-11-15T13:23:14;1.50;;;1.40;;
13483;SDS011;6814;57.786;12.080;2022-11-15T13:28:31;1.70;;;1.60;;
13483;SDS011;6814;57.786;12.080;2022-11-15T13:30:58;1.90;;;1.20;;
13483;SDS011;6814;57.786;12.080;2022-11-15T13:33:31;1.30;;;1.27;;
13483;SDS011;6814;57.786;12.080;2022-11-15T13:36:01;1.70;;;1.60;;
13483;SDS011;6814;57.786;12.080;2022-11-15T13:38:29;2.50;;;1.57;;
13483;SDS011;6814;57.786;12.080;2022-11-15T13:40:56;1.70;;;1.60;;
13483;SDS011;6814;57.786;12.080;2022-11-15T13:43:26;2.60;;;1.70;;
13483;SDS011;6814;57.786;12.080;2022-11-15T13:46:03;1.70;;;1.60;;
13483;SDS011;6814;57.786;12.080;2022-11-15T13:48:32;1.60;;;1.50;;
13483;SDS011;6814;57.786;12.080;2022-11-15T13:51:03;1.43;;;1.33;;
13483;SDS011;6814;57.786;12.080;2022-11-15T13:53:31;2.90;;;1.50;;
13483;SDS011;6814;57.786;12.080;2022-11-15T13:55:59;1.70;;;1.60;;
13483;SDS011;6814;57.786;12.080;2022-11-15T13:58:26;2.30;;;1.30;;
13483;SDS011;6814;57.786;12.080;2022-11-15T14:00:58;2.17;;;1.30;;
13483;SDS011;6814;57.786;12.080;2022-11-15T14:03:28;1.60;;;1.50;;
13483;SDS011;6814;57.786;12.080;2022-11-15T14:06:06;1.77;;;1.47;;
13483;SDS011;6814;57.786;12.080;2022-11-15T14:08:35;1.60;;;1.50;;
13483;SDS011;6814;57.786;12.080;2022-11-15T14:11:06;1.80;;;1.50;;
13483;SDS011;6814;57.786;12.080;2022-11-15T14:13:32;3.27;;;1.40;;
13483;SDS011;6814;57.786;12.080;2022-11-15T14:16:12;1.70;;;1.57;;
13483;SDS011;6814;57.786;12.080;2022-11-15T14:18:40;2.43;;;1.53;;
13483;SDS011;6814;57.786;12.080;2022-11-15T14:21:08;1.77;;;1.40;;
13483;SDS011;6814;57.786;12.080;2022-11-15T14:23:35;1.60;;;1.50;;
13483;SDS011;6814;57.786;12.080;2022-11-15T14:26:01;4.50;;;1.43;;
13483;SDS011;6814;57.786;12.080;2022-11-15T14:28:29;1.57;;;1.47;;
13483;SDS011;6814;57.786;12.080;2022-11-15T14:30:58;2.73;;;1.23;;
13483;SDS011;6814;57.786;12.080;2022-11-15T14:33:26;1.87;;;1.30;;
13483;SDS011;6814;57.786;12.080;2022-11-15T14:35:54;1.60;;;1.23;;
13483;SDS011;6814;57.786;12.080;2022-11-15T14:38:24;1.77;;;1.20;;
13483;SDS011;6814;57.786;12.080;2022-11-15T14:40:50;1.90;;;1.40;;
13483;SDS011;6814;57.786;12.080;2022-11-15T14:43:17;1.67;;;1.17;;
13483;SDS011;6814;57.786;12.080;2022-11-15T14:45:43;1.30;;;1.20;;
13483;SDS011;6814;57.786;12.080;2022-11-15T14:48:10;1.80;;;1.03;;
13483;SDS011;6814;57.786;12.080;2022-11-15T14:50:37;0.77;;;0.77;;
13483;SDS011;6814;57.786;12.080;2022-11-15T14:53:04;0.80;;;0.80;;
13483;SDS011;6814;57.786;12.080;2022-11-15T14:55:32;1.17;;;0.70;;
13483;SDS011;6814;57.786;12.080;2022-11-15T14:58:01;1.10;;;0.50;;
13483;SDS011;6814;57.786;12.080;2022-11-15T15:00:28;0.77;;;0.40;;
13483;SDS011;6814;57.786;12.080;2022-11-15T15:02:55;0.40;;;0.40;;
13483;SDS011;6814;57.786;12.080;2022-11-15T15:05:22;0.50;;;0.40;;
13483;SDS011;6814;57.786;12.080;2022-11-15T15:07:49;0.33;;;0.33;;
13483;SDS011;6814;57.786;12.080;2022-11-15T15:10:16;0.40;;;0.40;;
13483;SDS011;6814;57.786;12.080;2022-11-15T15:12:44;0.40;;;0.40;;